Flight Briefing for CPX318

Departure Arrival
Phoenix Sky Harbor International Airport (KPHX)
Click to view FAA NOTAMS
Portland International Airport (KPDX)
Click to view FAA NOTAMS
Departure Time Arrival Time
N/A N/A
Aircraft Distance
B767-300BDSF 878nm
Departure METAR Arrival METAR
KPHX 250251Z 33009KT 10SM FEW008 28/M04 A2978 RMK AO2 SLP069 FU VC NW-N FEW008 T02831039 53000 KPDX 250253Z 33006KT 10SM BKN070 14/06 A3000 RMK AO2 SLP157 60000 T01390061 51010
Suggested Route
ZEPER1 SISIE DOVEE BTY KO48I SOERN TMBRS2


View recent IFR Routes data
Notes



Charts and Procedures

Charts for KPHX
No chart available
Charts for KPDX
No chart available

Windy.com Weather Map